createdAt,value
2018-12-26T00:01:25.619Z,6.70
2018-12-26T00:03:56.760Z,6.70
2018-12-26T00:06:27.207Z,6.70
2018-12-26T00:08:57.654Z,6.70
2018-12-26T00:11:27.979Z,6.70
2018-12-26T00:13:58.332Z,6.70
2018-12-26T00:16:28.769Z,6.80
2018-12-26T00:18:59.240Z,6.70
2018-12-26T00:21:31.607Z,6.70
2018-12-26T00:24:02.033Z,6.80
2018-12-26T00:26:32.671Z,6.80
2018-12-26T00:29:03.061Z,6.80
2018-12-26T00:31:33.504Z,6.80
2018-12-26T00:34:04.060Z,6.80
2018-12-26T00:36:34.711Z,6.90
2018-12-26T00:39:07.402Z,6.90
2018-12-26T00:41:37.952Z,6.90
2018-12-26T00:44:09.523Z,6.90
2018-12-26T00:46:39.941Z,6.90
2018-12-26T00:49:22.716Z,6.90
2018-12-26T00:51:53.118Z,6.90
2018-12-26T00:54:23.779Z,6.90
2018-12-26T00:56:54.204Z,6.90
2018-12-26T00:59:24.550Z,7.00
2018-12-26T01:01:55.949Z,7.00
2018-12-26T01:04:26.906Z,7.00
2018-12-26T01:06:57.244Z,7.00
2018-12-26T01:09:27.989Z,7.00
2018-12-26T01:11:58.487Z,7.00
2018-12-26T01:14:29.057Z,7.00
2018-12-26T01:16:59.520Z,7.00
2018-12-26T01:19:30.239Z,7.00
2018-12-26T01:22:00.642Z,7.00
2018-12-26T01:24:31.095Z,7.00
2018-12-26T01:27:01.691Z,7.00
2018-12-26T01:29:32.211Z,7.00
2018-12-26T01:32:04.459Z,7.00
2018-12-26T01:34:34.809Z,7.00
2018-12-26T01:37:05.243Z,7.00
2018-12-26T01:39:35.970Z,7.00
2018-12-26T01:42:06.438Z,7.00
2018-12-26T01:44:36.879Z,7.00
2018-12-26T01:47:07.347Z,7.00
2018-12-26T01:49:37.755Z,7.00
2018-12-26T01:52:08.103Z,7.10
2018-12-26T01:54:40.189Z,7.00
2018-12-26T01:57:10.650Z,7.00
2018-12-26T01:59:41.083Z,7.00
2018-12-26T02:02:11.445Z,7.10
2018-12-26T02:04:42.738Z,7.10
2018-12-26T02:07:13.203Z,7.10
2018-12-26T02:09:44.307Z,7.00
2018-12-26T02:12:14.770Z,7.00
2018-12-26T02:14:45.203Z,7.10
2018-12-26T02:17:15.538Z,7.10
2018-12-26T02:19:46.478Z,7.00
2018-12-26T02:22:16.953Z,7.00
2018-12-26T02:24:47.381Z,7.00
2018-12-26T02:27:17.853Z,7.00
2018-12-26T02:29:48.319Z,7.00
2018-12-26T02:32:18.788Z,7.00
2018-12-26T02:34:49.154Z,7.00
2018-12-26T02:37:20.561Z,7.00
2018-12-26T02:39:51.079Z,7.00
2018-12-26T02:42:21.433Z,7.00
2018-12-26T02:44:52.403Z,7.00
2018-12-26T02:47:22.917Z,7.00
2018-12-26T02:49:53.639Z,7.00
2018-12-26T02:52:24.155Z,7.00
2018-12-26T02:54:54.776Z,7.00
2018-12-26T02:57:25.802Z,6.90
2018-12-26T02:59:56.175Z,6.90
2018-12-26T03:02:26.667Z,7.00
2018-12-26T03:04:57.572Z,7.00
2018-12-26T03:07:28.133Z,7.00
2018-12-26T03:09:58.461Z,7.00
2018-12-26T03:12:28.830Z,7.00
2018-12-26T03:14:59.251Z,7.00
2018-12-26T03:17:29.725Z,7.00
2018-12-26T03:20:00.156Z,7.00
2018-12-26T03:22:30.525Z,7.00
2018-12-26T03:25:01.455Z,7.00
2018-12-26T03:27:31.909Z,7.00
2018-12-26T03:30:02.828Z,7.00
2018-12-26T03:32:33.920Z,7.00
2018-12-26T03:35:04.452Z,7.00
2018-12-26T03:37:34.879Z,7.10
2018-12-26T03:40:06.295Z,7.10
2018-12-26T03:42:37.515Z,7.10
2018-12-26T03:45:08.111Z,7.10
2018-12-26T03:47:39.707Z,7.10
2018-12-26T03:50:12.055Z,7.10
2018-12-26T03:52:42.607Z,7.10
2018-12-26T03:55:13.156Z,7.10
2018-12-26T03:57:43.595Z,7.10
2018-12-26T04:00:14.197Z,7.10
2018-12-26T04:02:44.906Z,7.10
2018-12-26T04:05:15.713Z,7.10
2018-12-26T04:07:46.178Z,7.10
2018-12-26T04:10:16.938Z,7.10
2018-12-26T04:12:47.743Z,7.10
2018-12-26T04:15:19.978Z,7.10
2018-12-26T04:17:50.484Z,7.10
2018-12-26T04:20:21.341Z,7.20
2018-12-26T04:22:52.282Z,7.20
2018-12-26T04:25:22.923Z,7.20
2018-12-26T04:27:53.347Z,7.20
2018-12-26T04:30:23.798Z,7.20
2018-12-26T04:32:54.121Z,7.20
2018-12-26T04:35:24.457Z,7.20
2018-12-26T04:37:54.919Z,7.20
2018-12-26T04:40:25.556Z,7.20
2018-12-26T04:42:56.026Z,7.30
2018-12-26T04:45:26.344Z,7.30
2018-12-26T04:47:56.703Z,7.30
2018-12-26T04:50:27.145Z,7.30
2018-12-26T04:52:57.463Z,7.30
2018-12-26T04:55:28.438Z,7.30
2018-12-26T04:57:58.954Z,7.40
2018-12-26T05:00:29.333Z,7.40
2018-12-26T05:02:59.880Z,7.40
2018-12-26T05:05:30.439Z,7.40
2018-12-26T05:08:00.880Z,7.40
2018-12-26T05:10:31.328Z,7.40
2018-12-26T05:13:01.676Z,7.50
2018-12-26T05:15:32.179Z,7.50
2018-12-26T05:18:02.687Z,7.50
2018-12-26T05:20:33.175Z,7.50
2018-12-26T05:23:03.776Z,7.50
2018-12-26T05:25:34.207Z,7.50
2018-12-26T05:28:04.875Z,7.50
2018-12-26T05:30:35.307Z,7.50
2018-12-26T05:33:05.771Z,7.60
2018-12-26T05:35:37.020Z,7.60
2018-12-26T05:38:07.983Z,7.60
2018-12-26T05:40:38.306Z,7.60
2018-12-26T05:43:08.951Z,7.60
2018-12-26T05:45:39.442Z,7.60
2018-12-26T05:48:09.856Z,7.60
2018-12-26T05:50:40.307Z,7.60
2018-12-26T05:53:11.067Z,7.70
2018-12-26T05:55:41.494Z,7.70
2018-12-26T05:58:12.082Z,7.70
2018-12-26T06:00:42.681Z,7.70
2018-12-26T06:03:13.163Z,7.70
2018-12-26T06:05:44.276Z,7.70
2018-12-26T06:08:14.874Z,7.80
2018-12-26T06:10:45.291Z,7.80
2018-12-26T06:13:15.776Z,7.80
2018-12-26T06:15:46.185Z,7.80
2018-12-26T06:18:17.663Z,7.80
2018-12-26T06:20:47.991Z,7.80
2018-12-26T06:23:18.337Z,7.80
2018-12-26T06:25:48.791Z,7.80
2018-12-26T06:28:20.178Z,7.80
2018-12-26T06:30:50.610Z,7.80
2018-12-26T06:33:20.977Z,7.80
2018-12-26T06:35:51.375Z,7.80
2018-12-26T06:38:21.718Z,7.90
2018-12-26T06:40:52.175Z,7.80
2018-12-26T06:43:22.648Z,7.90
2018-12-26T06:45:52.962Z,7.90
2018-12-26T06:48:23.306Z,7.90
2018-12-26T06:50:54.057Z,7.90
2018-12-26T06:53:24.514Z,7.90
2018-12-26T06:55:55.221Z,7.90
2018-12-26T06:58:27.650Z,7.90
2018-12-26T07:00:57.995Z,7.90
2018-12-26T07:03:28.352Z,8.00
2018-12-26T07:05:59.438Z,8.00
2018-12-26T07:08:29.854Z,8.00
2018-12-26T07:11:01.408Z,8.00
2018-12-26T07:13:31.768Z,8.00
2018-12-26T07:16:02.377Z,8.00
2018-12-26T07:18:32.795Z,8.00
2018-12-26T07:21:03.333Z,8.00
2018-12-26T07:23:34.072Z,8.00
2018-12-26T07:26:04.539Z,8.10
2018-12-26T07:28:35.011Z,8.10
2018-12-26T07:31:05.369Z,8.10
2018-12-26T07:33:36.083Z,8.10
2018-12-26T07:36:07.189Z,8.10
2018-12-26T07:38:37.686Z,8.10
2018-12-26T07:41:09.600Z,8.10
2018-12-26T07:43:39.975Z,8.10
2018-12-26T07:46:12.855Z,8.10
2018-12-26T07:48:45.133Z,8.10
2018-12-26T07:51:21.031Z,8.10
2018-12-26T07:53:53.112Z,8.10
2018-12-26T07:56:24.572Z,8.20
2018-12-26T07:58:58.071Z,8.20
2018-12-26T08:01:29.728Z,8.20
2018-12-26T08:04:00.843Z,8.20
2018-12-26T08:06:32.987Z,8.20
2018-12-26T08:09:07.026Z,8.20
2018-12-26T08:11:38.038Z,8.20
2018-12-26T08:14:10.871Z,8.20
2018-12-26T08:16:42.033Z,8.20
2018-12-26T08:19:13.813Z,8.30
2018-12-26T08:21:49.563Z,8.30
2018-12-26T08:24:20.754Z,8.30
2018-12-26T08:26:53.622Z,8.30
2018-12-26T08:29:27.283Z,8.30
2018-12-26T08:31:58.376Z,8.30
2018-12-26T08:34:29.576Z,8.30
2018-12-26T08:37:00.310Z,8.40
2018-12-26T08:39:42.059Z,8.40
2018-12-26T08:42:15.343Z,8.40
2018-12-26T08:44:46.016Z,8.40
2018-12-26T08:47:18.167Z,8.40
2018-12-26T08:49:50.816Z,8.40
2018-12-26T08:52:23.107Z,8.50
2018-12-26T08:54:54.415Z,8.40
2018-12-26T08:57:29.248Z,8.50
2018-12-26T09:00:01.231Z,8.50
2018-12-26T09:02:33.344Z,8.50
2018-12-26T09:05:07.835Z,8.50
2018-12-26T09:07:40.368Z,8.50
2018-12-26T09:10:13.081Z,8.50
2018-12-26T09:12:44.029Z,8.50
2018-12-26T09:15:19.062Z,8.50
2018-12-26T09:17:51.035Z,8.50
2018-12-26T09:20:25.217Z,8.50
2018-12-26T09:22:58.158Z,8.50
2018-12-26T09:25:32.742Z,8.50
2018-12-26T09:28:05.255Z,8.50
2018-12-26T09:30:38.764Z,8.50
2018-12-26T09:33:09.455Z,8.50
2018-12-26T09:35:41.989Z,8.50
2018-12-26T09:38:12.680Z,8.50
2018-12-26T09:40:44.052Z,8.50
2018-12-26T09:43:17.746Z,8.50
2018-12-26T09:45:50.971Z,8.50
2018-12-26T09:48:23.731Z,8.40
2018-12-26T09:50:54.137Z,8.30
2018-12-26T09:53:26.823Z,8.30
2018-12-26T09:55:57.310Z,8.30
2018-12-26T09:58:27.730Z,8.40
2018-12-26T10:00:58.176Z,8.30
2018-12-26T10:03:28.502Z,8.30
2018-12-26T10:05:59.079Z,8.20
2018-12-26T10:08:30.260Z,8.20
2018-12-26T10:11:00.604Z,8.30
2018-12-26T10:13:30.959Z,8.30
2018-12-26T10:16:01.383Z,8.30
2018-12-26T10:18:32.679Z,8.40
2018-12-26T10:21:03.015Z,8.40
2018-12-26T10:23:33.432Z,8.40
2018-12-26T10:26:04.677Z,8.40
2018-12-26T10:28:35.007Z,8.40
2018-12-26T10:31:05.536Z,8.40
2018-12-26T10:33:35.879Z,8.50
2018-12-26T10:36:07.229Z,8.50
2018-12-26T10:38:37.607Z,8.50
2018-12-26T10:41:08.081Z,8.50
2018-12-26T10:43:38.406Z,8.50
2018-12-26T10:46:10.496Z,8.50
2018-12-26T10:48:40.931Z,8.40
2018-12-26T10:51:12.199Z,8.50
2018-12-26T10:53:44.543Z,8.60
2018-12-26T10:56:14.943Z,8.60
2018-12-26T10:58:45.577Z,8.60
2018-12-26T11:01:17.641Z,8.60
2018-12-26T11:03:48.140Z,8.70
2018-12-26T11:06:18.719Z,8.70
2018-12-26T11:08:49.810Z,8.70
2018-12-26T11:11:20.173Z,8.70
2018-12-26T11:13:50.632Z,8.60
2018-12-26T11:16:21.254Z,8.60
2018-12-26T11:18:52.012Z,8.60
2018-12-26T11:21:22.478Z,8.60
2018-12-26T11:23:53.103Z,8.60
2018-12-26T11:26:24.379Z,8.60
2018-12-26T11:28:55.638Z,8.60
2018-12-26T11:31:26.203Z,8.70
2018-12-26T11:33:56.671Z,8.70
2018-12-26T11:36:27.379Z,8.60
2018-12-26T11:38:57.836Z,8.70
2018-12-26T11:41:28.395Z,8.60
2018-12-26T11:44:02.926Z,8.70
2018-12-26T11:46:33.456Z,8.60
2018-12-26T11:49:03.887Z,8.60
2018-12-26T11:51:34.319Z,8.60
2018-12-26T11:54:04.691Z,8.70
2018-12-26T11:56:35.049Z,8.70
2018-12-26T11:59:05.413Z,8.70
2018-12-26T12:01:36.587Z,8.60
2018-12-26T12:04:07.108Z,8.60
2018-12-26T12:06:38.768Z,8.70
2018-12-26T12:09:10.540Z,8.70
2018-12-26T12:11:42.229Z,8.70
2018-12-26T12:14:12.606Z,8.70
2018-12-26T12:16:44.950Z,8.70
2018-12-26T12:19:15.435Z,8.70
2018-12-26T12:21:46.171Z,8.70
2018-12-26T12:24:16.579Z,8.80
2018-12-26T12:26:47.170Z,8.80
2018-12-26T12:29:17.586Z,8.90
2018-12-26T12:31:48.652Z,8.80
2018-12-26T12:34:19.296Z,8.60
2018-12-26T12:36:49.932Z,8.60
2018-12-26T12:39:21.250Z,8.50
2018-12-26T12:41:51.732Z,8.60
2018-12-26T12:44:22.226Z,8.50
2018-12-26T12:46:52.711Z,8.60
2018-12-26T12:49:23.320Z,8.50
2018-12-26T12:51:53.744Z,8.50
2018-12-26T12:54:24.247Z,8.50
2018-12-26T12:56:55.290Z,8.50
2018-12-26T12:59:25.742Z,8.50
2018-12-26T13:01:56.290Z,8.50
2018-12-26T13:04:27.698Z,8.50
2018-12-26T13:06:58.052Z,8.50
2018-12-26T13:09:28.449Z,8.50
2018-12-26T13:11:59.450Z,8.40
2018-12-26T13:14:30.576Z,8.40
2018-12-26T13:17:01.534Z,8.30
2018-12-26T13:19:35.327Z,8.30
2018-12-26T13:22:05.761Z,8.20
2018-12-26T13:24:36.251Z,8.20
2018-12-26T13:27:07.548Z,8.20
2018-12-26T13:29:37.936Z,8.10
2018-12-26T13:32:08.388Z,8.10
2018-12-26T13:34:38.735Z,8.10
2018-12-26T13:37:09.078Z,8.10
2018-12-26T13:39:39.536Z,8.10
2018-12-26T13:42:11.731Z,8.10
2018-12-26T13:44:43.291Z,8.10
2018-12-26T13:47:13.847Z,8.10
2018-12-26T13:49:44.265Z,8.00
2018-12-26T13:52:14.616Z,8.00
2018-12-26T13:54:45.035Z,8.00
2018-12-26T13:57:15.536Z,8.10
2018-12-26T13:59:45.967Z,8.00
2018-12-26T14:02:19.160Z,8.00
2018-12-26T14:04:52.997Z,8.00
2018-12-26T14:07:23.832Z,7.90
2018-12-26T14:09:54.991Z,7.90
2018-12-26T14:12:27.212Z,8.00
2018-12-26T14:14:57.641Z,8.00
2018-12-26T14:17:27.990Z,7.90
2018-12-26T14:19:58.433Z,7.90
2018-12-26T14:22:28.880Z,7.90
2018-12-26T14:24:59.321Z,8.10
2018-12-26T14:27:30.780Z,8.00
2018-12-26T14:30:01.200Z,8.10
2018-12-26T14:32:31.627Z,8.10
2018-12-26T14:35:02.089Z,8.10
2018-12-26T14:37:32.464Z,8.00
2018-12-26T14:40:03.040Z,8.00
2018-12-26T14:42:33.467Z,8.00
2018-12-26T14:45:04.072Z,8.00
2018-12-26T14:47:35.072Z,8.00
2018-12-26T14:50:06.185Z,8.00
2018-12-26T14:52:36.925Z,8.00
2018-12-26T14:55:07.475Z,8.00
2018-12-26T14:57:37.885Z,8.00
2018-12-26T15:00:08.693Z,8.00
2018-12-26T15:02:39.072Z,8.00
2018-12-26T15:05:09.505Z,8.00
2018-12-26T15:07:42.433Z,8.00
2018-12-26T15:10:14.190Z,7.90
2018-12-26T15:12:44.639Z,7.80
2018-12-26T15:15:15.894Z,7.80
2018-12-26T15:17:46.357Z,7.80
2018-12-26T15:20:16.776Z,7.80
2018-12-26T15:22:49.335Z,7.90
2018-12-26T15:25:21.264Z,7.80
2018-12-26T15:27:51.628Z,7.70
2018-12-26T15:30:28.543Z,7.60
2018-12-26T15:32:55.285Z,7.60
2018-12-26T15:35:25.692Z,7.60
2018-12-26T15:37:56.164Z,7.50
2018-12-26T15:40:28.877Z,7.50
2018-12-26T15:43:01.318Z,7.50
2018-12-26T15:45:33.612Z,7.50
2018-12-26T15:48:04.223Z,7.50
2018-12-26T15:50:34.619Z,7.50
2018-12-26T15:53:06.159Z,7.50
2018-12-26T15:55:36.525Z,7.40
2018-12-26T15:58:07.256Z,7.40
2018-12-26T16:00:37.894Z,7.50
2018-12-26T16:03:08.503Z,7.50
2018-12-26T16:05:38.923Z,7.40
2018-12-26T16:08:10.240Z,7.40
2018-12-26T16:10:42.623Z,7.30
2018-12-26T16:13:13.119Z,7.40
2018-12-26T16:15:43.628Z,7.40
2018-12-26T16:18:14.118Z,7.40
2018-12-26T16:20:44.612Z,7.40
2018-12-26T16:23:15.044Z,7.40
2018-12-26T16:25:46.265Z,7.40
2018-12-26T16:28:17.023Z,7.30
2018-12-26T16:30:47.458Z,7.30
2018-12-26T16:33:18.223Z,7.30
2018-12-26T16:35:48.553Z,7.30
2018-12-26T16:38:18.993Z,7.40
2018-12-26T16:40:49.422Z,7.30
2018-12-26T16:43:20.100Z,7.30
2018-12-26T16:45:50.542Z,7.30
2018-12-26T16:48:20.912Z,7.30
2018-12-26T16:50:51.991Z,7.20
2018-12-26T16:53:22.528Z,7.20
2018-12-26T16:55:53.183Z,7.20
2018-12-26T16:58:23.611Z,7.30
2018-12-26T17:00:55.191Z,7.20
2018-12-26T17:03:27.688Z,7.10
2018-12-26T17:05:58.143Z,7.20
2018-12-26T17:08:29.199Z,7.20
2018-12-26T17:11:00.399Z,7.20
2018-12-26T17:13:30.877Z,7.20
2018-12-26T17:16:01.324Z,7.20
2018-12-26T17:18:31.667Z,7.20
2018-12-26T17:21:02.254Z,7.20
2018-12-26T17:23:33.405Z,7.10
2018-12-26T17:26:03.863Z,7.20
2018-12-26T17:28:34.477Z,7.10
2018-12-26T17:31:04.936Z,7.10
2018-12-26T17:33:35.435Z,7.00
2018-12-26T17:36:05.887Z,7.10
2018-12-26T17:38:36.678Z,7.00
2018-12-26T17:41:07.139Z,6.90
2018-12-26T17:43:37.465Z,7.00
2018-12-26T17:46:08.674Z,7.00
2018-12-26T17:48:39.140Z,7.00
2018-12-26T17:51:13.920Z,7.00
2018-12-26T17:54:11.762Z,7.00
2018-12-26T17:57:04.040Z,6.90
2018-12-26T17:59:39.217Z,7.00
2018-12-26T18:02:14.342Z,7.00
2018-12-26T18:04:44.732Z,7.00
2018-12-26T18:07:15.165Z,6.90
2018-12-26T18:09:46.109Z,6.80
2018-12-26T18:12:17.496Z,6.90
2018-12-26T18:14:48.007Z,6.90
2018-12-26T18:17:18.520Z,6.90
2018-12-26T18:19:49.107Z,6.80
2018-12-26T18:22:19.675Z,6.70
2018-12-26T18:24:50.055Z,6.70
2018-12-26T18:27:20.475Z,6.70
2018-12-26T18:29:51.023Z,6.60
2018-12-26T18:32:21.481Z,6.60
2018-12-26T18:34:52.968Z,6.60
2018-12-26T18:37:24.015Z,6.50
2018-12-26T18:39:54.448Z,6.40
2018-12-26T18:42:24.977Z,6.50
2018-12-26T18:44:55.631Z,6.50
2018-12-26T18:47:26.097Z,6.50
2018-12-26T18:49:56.435Z,6.50
2018-12-26T18:52:27.492Z,6.40
2018-12-26T18:54:57.942Z,6.30
2018-12-26T18:57:28.454Z,6.30
2018-12-26T19:00:07.944Z,6.30
2018-12-26T19:02:42.062Z,6.30
2018-12-26T19:05:12.632Z,6.20
2018-12-26T19:07:43.480Z,6.20
2018-12-26T19:10:14.140Z,6.30
2018-12-26T19:12:44.577Z,6.30
2018-12-26T19:15:15.117Z,6.30
2018-12-26T19:17:45.981Z,6.30
2018-12-26T19:20:17.043Z,6.30
2018-12-26T19:22:47.636Z,6.40
2018-12-26T19:25:18.043Z,6.30
2018-12-26T19:27:48.585Z,6.30
2018-12-26T19:30:19.863Z,6.30
2018-12-26T19:32:50.359Z,6.30
2018-12-26T19:35:20.740Z,6.20
2018-12-26T19:37:51.271Z,6.20
2018-12-26T19:40:33.718Z,6.20
2018-12-26T19:43:04.196Z,6.10
2018-12-26T19:45:34.756Z,6.10
2018-12-26T19:48:05.148Z,6.10
2018-12-26T19:50:35.605Z,6.10
2018-12-26T19:53:06.011Z,6.10
2018-12-26T19:55:37.366Z,6.10
2018-12-26T19:58:07.841Z,6.10
2018-12-26T20:00:38.293Z,6.20
2018-12-26T20:03:10.243Z,6.20
2018-12-26T20:05:41.208Z,6.20
2018-12-26T20:08:14.962Z,6.20
2018-12-26T20:10:46.785Z,6.20
2018-12-26T20:13:17.419Z,6.10
2018-12-26T20:15:48.239Z,6.10
2018-12-26T20:18:18.679Z,6.10
2018-12-26T20:20:49.107Z,6.00
2018-12-26T20:23:19.563Z,6.10
2018-12-26T20:25:50.001Z,6.00
2018-12-26T20:28:20.449Z,6.00
2018-12-26T20:30:50.791Z,6.00
2018-12-26T20:33:21.312Z,6.00
2018-12-26T20:35:53.222Z,6.00
2018-12-26T20:38:24.584Z,5.90
2018-12-26T20:40:55.038Z,6.00
2018-12-26T20:43:25.540Z,6.00
2018-12-26T20:45:56.096Z,6.10
2018-12-26T20:48:27.220Z,6.10
2018-12-26T20:50:57.624Z,6.10
2018-12-26T20:53:28.097Z,6.00
2018-12-26T20:55:58.537Z,6.00
2018-12-26T20:58:31.875Z,6.00
2018-12-26T21:01:02.288Z,6.00
2018-12-26T21:03:32.715Z,6.10
2018-12-26T21:06:03.252Z,6.00
2018-12-26T21:08:35.054Z,6.00
2018-12-26T21:11:09.243Z,5.90
2018-12-26T21:13:41.155Z,5.90
2018-12-26T21:16:11.632Z,5.90
2018-12-26T21:18:42.081Z,6.00
2018-12-26T21:21:12.609Z,6.00
2018-12-26T21:23:43.819Z,6.00
2018-12-26T21:26:17.285Z,6.00
2018-12-26T21:28:47.786Z,6.00
2018-12-26T21:31:20.726Z,5.90
2018-12-26T21:33:52.192Z,5.90
2018-12-26T21:36:22.722Z,5.80
2018-12-26T21:38:56.766Z,5.80
2018-12-26T21:41:32.240Z,5.80
2018-12-26T21:44:02.653Z,5.80
2018-12-26T21:46:37.223Z,5.90
2018-12-26T21:49:07.643Z,6.00
2018-12-26T21:51:38.119Z,5.90
2018-12-26T21:54:10.263Z,5.90
2018-12-26T21:56:40.715Z,5.90
2018-12-26T21:59:17.099Z,5.90
2018-12-26T22:01:47.626Z,5.80
2018-12-26T22:04:20.737Z,5.90
2018-12-26T22:06:51.196Z,6.00
2018-12-26T22:09:23.343Z,6.00
2018-12-26T22:11:54.394Z,6.00
2018-12-26T22:14:24.762Z,6.00
2018-12-26T22:16:55.742Z,6.00
2018-12-26T22:19:26.171Z,6.00
2018-12-26T22:21:56.636Z,6.10
2018-12-26T22:24:27.304Z,6.10
2018-12-26T22:26:57.628Z,6.00
2018-12-26T22:29:28.050Z,6.00
2018-12-26T22:31:58.384Z,6.00
2018-12-26T22:34:29.863Z,5.90
2018-12-26T22:37:01.218Z,5.90
2018-12-26T22:39:31.575Z,6.00
2018-12-26T22:42:02.623Z,6.00
2018-12-26T22:44:32.986Z,5.90
2018-12-26T22:47:03.591Z,6.00
2018-12-26T22:49:34.003Z,6.00
2018-12-26T22:52:04.414Z,6.10
2018-12-26T22:54:34.739Z,6.00
2018-12-26T22:57:05.221Z,6.00
2018-12-26T22:59:35.990Z,6.10
2018-12-26T23:02:06.576Z,6.00
2018-12-26T23:04:38.022Z,6.10
2018-12-26T23:07:08.420Z,6.00
2018-12-26T23:09:38.745Z,6.10
2018-12-26T23:12:10.647Z,6.10
2018-12-26T23:14:41.099Z,6.10
2018-12-26T23:17:12.012Z,6.00
2018-12-26T23:19:42.935Z,6.10
2018-12-26T23:22:13.316Z,6.10
2018-12-26T23:24:44.005Z,6.10
2018-12-26T23:27:14.455Z,6.20
2018-12-26T23:29:46.664Z,6.10
2018-12-26T23:32:17.092Z,6.10
2018-12-26T23:34:47.452Z,6.10
2018-12-26T23:37:17.858Z,6.00
2018-12-26T23:39:48.212Z,6.00
2018-12-26T23:42:18.668Z,6.00
2018-12-26T23:44:49.817Z,5.90
2018-12-26T23:47:20.895Z,5.90
2018-12-26T23:49:51.213Z,5.90
2018-12-26T23:52:21.555Z,5.90
2018-12-26T23:54:52.027Z,5.90
2018-12-26T23:57:22.446Z,5.90
2018-12-26T23:59:52.914Z,6.00
